createdAt,value
2018-12-24T00:00:21.436Z,54.17
2018-12-24T00:01:25.284Z,54.19
2018-12-24T00:02:28.986Z,54.18
2018-12-24T00:03:32.601Z,54.19
2018-12-24T00:04:36.317Z,54.21
2018-12-24T00:05:39.967Z,54.20
2018-12-24T00:06:43.654Z,54.20
2018-12-24T00:07:47.362Z,54.22
2018-12-24T00:08:51.006Z,54.21
2018-12-24T00:09:54.927Z,54.21
2018-12-24T00:10:58.717Z,54.21
2018-12-24T00:12:06.901Z,54.21
2018-12-24T00:13:08.010Z,54.25
2018-12-24T00:14:11.787Z,54.25
2018-12-24T00:15:15.542Z,54.25
2018-12-24T00:16:19.117Z,54.25
2018-12-24T00:17:22.989Z,54.25
2018-12-24T00:18:26.652Z,54.22
2018-12-24T00:19:30.284Z,54.24
2018-12-24T00:20:33.911Z,54.25
2018-12-24T00:21:37.593Z,54.24
2018-12-24T00:22:41.395Z,54.25
2018-12-24T00:23:45.016Z,54.27
2018-12-24T00:24:48.703Z,54.25
2018-12-24T00:25:52.342Z,54.27
2018-12-24T00:26:56.099Z,54.26
2018-12-24T00:27:59.868Z,54.27
2018-12-24T00:29:03.486Z,54.27
2018-12-24T00:30:07.054Z,54.27
2018-12-24T00:31:10.659Z,54.27
2018-12-24T00:32:14.335Z,54.28
2018-12-24T00:33:18.017Z,54.28
2018-12-24T00:34:21.710Z,54.30
2018-12-24T00:35:25.347Z,54.29
2018-12-24T00:36:28.948Z,54.28
2018-12-24T00:37:32.635Z,54.29
2018-12-24T00:38:36.343Z,54.28
2018-12-24T00:39:40.031Z,54.28
2018-12-24T00:40:43.712Z,54.30
2018-12-24T00:41:47.366Z,54.29
2018-12-24T00:42:51.123Z,54.26
2018-12-24T00:43:54.810Z,54.28
2018-12-24T00:44:58.465Z,54.29
2018-12-24T00:46:02.065Z,54.29
2018-12-24T00:47:05.747Z,54.30
2018-12-24T00:48:09.709Z,54.30
2018-12-24T00:49:13.365Z,54.30
2018-12-24T00:50:17.015Z,54.28
2018-12-24T00:51:20.705Z,54.29
2018-12-24T00:52:24.439Z,54.28
2018-12-24T00:53:28.059Z,54.27
2018-12-24T00:54:31.768Z,54.26
2018-12-24T00:55:35.399Z,54.24
2018-12-24T00:56:38.992Z,54.24
2018-12-24T00:57:42.657Z,54.25
2018-12-24T00:58:46.468Z,54.27
2018-12-24T00:59:50.074Z,54.27
2018-12-24T01:00:53.699Z,54.26
2018-12-24T01:01:57.435Z,54.24
2018-12-24T01:03:01.049Z,54.24
2018-12-24T01:04:04.659Z,54.22
2018-12-24T01:05:08.485Z,54.26
2018-12-24T01:06:12.090Z,54.28
2018-12-24T01:07:15.714Z,54.27
2018-12-24T01:08:19.447Z,54.27
2018-12-24T01:09:23.111Z,54.26
2018-12-24T01:10:26.803Z,54.24
2018-12-24T01:11:30.399Z,54.22
2018-12-24T01:12:34.000Z,54.22
2018-12-24T01:13:37.687Z,54.20
2018-12-24T01:14:41.367Z,54.18
2018-12-24T01:15:44.981Z,54.21
2018-12-24T01:16:48.651Z,54.24
2018-12-24T01:17:52.242Z,54.24
2018-12-24T01:18:55.943Z,54.22
2018-12-24T01:19:59.561Z,54.24
2018-12-24T01:21:03.190Z,54.24
2018-12-24T01:22:06.863Z,54.22
2018-12-24T01:23:10.555Z,54.24
2018-12-24T01:24:14.216Z,54.19
2018-12-24T01:25:17.890Z,54.23
2018-12-24T01:26:21.535Z,54.21
2018-12-24T01:27:25.273Z,54.22
2018-12-24T01:28:28.881Z,54.23
2018-12-24T01:29:32.484Z,54.26
2018-12-24T01:30:36.083Z,54.24
2018-12-24T01:31:39.776Z,54.25
2018-12-24T01:32:43.369Z,54.25
2018-12-24T01:33:47.065Z,54.24
2018-12-24T01:34:50.682Z,54.25
2018-12-24T01:35:54.278Z,54.26
2018-12-24T01:36:57.969Z,54.25
2018-12-24T01:38:01.570Z,54.27
2018-12-24T01:39:06.414Z,54.26
2018-12-24T01:40:10.024Z,54.23
2018-12-24T01:41:13.620Z,54.26
2018-12-24T01:42:17.340Z,54.26
2018-12-24T01:43:20.946Z,54.26
2018-12-24T01:44:24.541Z,54.29
2018-12-24T01:45:28.150Z,54.29
2018-12-24T01:46:31.792Z,54.28
2018-12-24T01:47:35.406Z,54.27
2018-12-24T01:48:39.016Z,54.29
2018-12-24T01:49:42.616Z,54.32
2018-12-24T01:50:46.233Z,54.31
2018-12-24T01:51:49.846Z,54.29
2018-12-24T01:52:53.470Z,54.31
2018-12-24T01:53:57.137Z,54.31
2018-12-24T01:55:00.779Z,54.30
2018-12-24T01:56:04.439Z,54.29
2018-12-24T01:57:08.170Z,54.32
2018-12-24T01:58:11.893Z,54.31
2018-12-24T01:59:16.879Z,54.30
2018-12-24T02:00:20.705Z,54.31
2018-12-24T02:01:24.374Z,54.32
2018-12-24T02:02:27.976Z,54.33
2018-12-24T02:03:31.687Z,54.32
2018-12-24T02:04:35.355Z,54.34
2018-12-24T02:05:38.944Z,54.33
2018-12-24T02:06:42.547Z,54.34
2018-12-24T02:07:46.245Z,54.34
2018-12-24T02:08:49.997Z,54.32
2018-12-24T02:09:53.628Z,54.32
2018-12-24T02:10:57.241Z,54.31
2018-12-24T02:12:00.831Z,54.30
2018-12-24T02:13:04.443Z,54.30
2018-12-24T02:14:08.090Z,54.30
2018-12-24T02:15:11.736Z,54.31
2018-12-24T02:16:15.396Z,54.33
2018-12-24T02:17:19.215Z,54.33
2018-12-24T02:18:22.822Z,54.33
2018-12-24T02:19:26.521Z,54.34
2018-12-24T02:20:30.211Z,54.35
2018-12-24T02:21:33.844Z,54.33
2018-12-24T02:22:37.543Z,54.36
2018-12-24T02:23:41.219Z,54.34
2018-12-24T02:24:44.845Z,54.35
2018-12-24T02:25:48.446Z,54.34
2018-12-24T02:26:52.113Z,54.33
2018-12-24T02:27:55.718Z,54.35
2018-12-24T02:28:59.346Z,54.35
2018-12-24T02:30:03.051Z,54.35
2018-12-24T02:31:09.588Z,54.35
2018-12-24T02:32:13.212Z,54.34
2018-12-24T02:33:16.866Z,54.35
2018-12-24T02:34:20.482Z,54.35
2018-12-24T02:35:24.270Z,54.36
2018-12-24T02:36:27.943Z,54.35
2018-12-24T02:37:31.605Z,54.34
2018-12-24T02:38:35.273Z,54.34
2018-12-24T02:39:39.019Z,54.34
2018-12-24T02:40:42.747Z,54.34
2018-12-24T02:41:46.343Z,54.33
2018-12-24T02:42:52.563Z,54.33
2018-12-24T02:43:55.366Z,54.32
2018-12-24T02:44:58.959Z,54.30
2018-12-24T02:46:02.773Z,54.30
2018-12-24T02:47:06.579Z,54.30
2018-12-24T02:48:10.241Z,54.31
2018-12-24T02:49:13.833Z,54.33
2018-12-24T02:50:17.428Z,54.31
2018-12-24T02:51:21.081Z,54.33
2018-12-24T02:52:24.711Z,54.32
2018-12-24T02:53:28.312Z,54.33
2018-12-24T02:54:31.923Z,54.35
2018-12-24T02:55:35.521Z,54.33
2018-12-24T02:56:39.175Z,54.33
2018-12-24T02:57:42.767Z,54.32
2018-12-24T02:58:46.353Z,54.32
2018-12-24T02:59:49.980Z,54.33
2018-12-24T03:00:53.604Z,54.33
2018-12-24T03:01:57.244Z,54.32
2018-12-24T03:03:00.864Z,54.31
2018-12-24T03:04:04.503Z,54.33
2018-12-24T03:05:08.139Z,54.30
2018-12-24T03:06:11.937Z,54.30
2018-12-24T03:07:15.565Z,54.31
2018-12-24T03:08:19.213Z,54.31
2018-12-24T03:09:22.899Z,54.32
2018-12-24T03:10:26.557Z,54.30
2018-12-24T03:11:30.244Z,54.32
2018-12-24T03:12:33.975Z,54.30
2018-12-24T03:13:37.546Z,54.30
2018-12-24T03:14:41.240Z,54.30
2018-12-24T03:15:44.828Z,54.31
2018-12-24T03:16:48.413Z,54.30
2018-12-24T03:17:52.054Z,54.30
2018-12-24T03:18:55.710Z,54.31
2018-12-24T03:19:59.339Z,54.28
2018-12-24T03:21:03.011Z,54.30
2018-12-24T03:22:06.595Z,54.32
2018-12-24T03:23:10.243Z,54.29
2018-12-24T03:24:13.892Z,54.31
2018-12-24T03:25:17.620Z,54.29
2018-12-24T03:26:21.307Z,54.30
2018-12-24T03:27:24.884Z,54.30
2018-12-24T03:28:28.538Z,54.29
2018-12-24T03:29:32.153Z,54.29
2018-12-24T03:30:35.733Z,54.29
2018-12-24T03:31:39.379Z,54.31
2018-12-24T03:32:42.987Z,54.30
2018-12-24T03:33:46.711Z,54.30
2018-12-24T03:34:50.320Z,54.30
2018-12-24T03:35:53.988Z,54.28
2018-12-24T03:36:57.722Z,54.29
2018-12-24T03:38:01.376Z,54.27
2018-12-24T03:39:06.833Z,54.24
2018-12-24T03:40:10.603Z,54.19
2018-12-24T03:41:14.271Z,54.15
2018-12-24T03:42:17.898Z,54.11
2018-12-24T03:43:21.516Z,54.03
2018-12-24T03:44:25.211Z,53.98
2018-12-24T03:45:28.914Z,53.92
2018-12-24T03:46:32.659Z,53.85
2018-12-24T03:47:36.254Z,53.77
2018-12-24T03:48:39.857Z,53.72
2018-12-24T03:49:43.459Z,53.65
2018-12-24T03:50:47.044Z,53.52
2018-12-24T03:51:50.660Z,53.38
2018-12-24T03:52:54.268Z,53.17
2018-12-24T03:53:57.888Z,52.91
2018-12-24T03:55:01.533Z,52.78
2018-12-24T03:56:05.133Z,52.48
2018-12-24T03:57:08.882Z,52.15
2018-12-24T03:58:12.472Z,51.90
2018-12-24T03:59:16.069Z,51.77
2018-12-24T04:00:19.779Z,51.50
2018-12-24T04:01:23.366Z,51.17
2018-12-24T04:02:26.982Z,50.85
2018-12-24T04:03:30.694Z,50.73
2018-12-24T04:04:34.352Z,50.52
2018-12-24T04:05:38.046Z,50.37
2018-12-24T04:06:41.667Z,50.16
2018-12-24T04:07:45.454Z,50.07
2018-12-24T04:08:49.170Z,49.90
2018-12-24T04:09:52.765Z,49.78
2018-12-24T04:10:56.538Z,49.57
2018-12-24T04:12:00.146Z,49.23
2018-12-24T04:13:03.805Z,49.20
2018-12-24T04:14:07.441Z,49.12
2018-12-24T04:15:11.114Z,48.98
2018-12-24T04:16:14.750Z,48.93
2018-12-24T04:17:18.359Z,48.86
2018-12-24T04:18:22.138Z,48.80
2018-12-24T04:19:25.816Z,48.62
2018-12-24T04:20:29.437Z,48.56
2018-12-24T04:21:33.133Z,48.43
2018-12-24T04:22:36.731Z,48.30
2018-12-24T04:23:40.449Z,48.16
2018-12-24T04:24:44.107Z,48.05
2018-12-24T04:25:47.799Z,48.06
2018-12-24T04:26:51.431Z,47.89
2018-12-24T04:27:55.035Z,47.83
2018-12-24T04:28:58.734Z,47.77
2018-12-24T04:30:02.328Z,47.68
2018-12-24T04:31:05.936Z,47.57
2018-12-24T04:32:09.648Z,47.52
2018-12-24T04:33:13.273Z,47.49
2018-12-24T04:34:16.899Z,47.46
2018-12-24T04:35:20.693Z,47.34
2018-12-24T04:36:24.360Z,47.40
2018-12-24T04:37:28.059Z,47.40
2018-12-24T04:38:31.665Z,47.33
2018-12-24T04:39:35.270Z,47.37
2018-12-24T04:40:38.938Z,47.44
2018-12-24T04:41:42.543Z,47.40
2018-12-24T04:42:46.277Z,47.40
2018-12-24T04:43:49.904Z,47.45
2018-12-24T04:44:53.572Z,47.44
2018-12-24T04:45:57.163Z,47.36
2018-12-24T04:47:00.835Z,47.35
2018-12-24T04:48:04.548Z,47.29
2018-12-24T04:49:08.191Z,47.21
2018-12-24T04:50:11.862Z,47.24
2018-12-24T04:51:15.470Z,47.34
2018-12-24T04:52:19.139Z,47.34
2018-12-24T04:53:22.852Z,47.39
2018-12-24T04:54:26.528Z,47.38
2018-12-24T04:55:30.130Z,47.40
2018-12-24T04:56:33.815Z,47.50
2018-12-24T04:57:37.435Z,47.48
2018-12-24T04:58:41.147Z,47.54
2018-12-24T04:59:44.765Z,47.52
2018-12-24T05:00:48.432Z,47.47
2018-12-24T05:01:52.031Z,47.47
2018-12-24T05:02:55.711Z,47.44
2018-12-24T05:03:59.407Z,47.38
2018-12-24T05:05:03.004Z,47.44
2018-12-24T05:06:06.722Z,47.46
2018-12-24T05:07:10.345Z,47.46
2018-12-24T05:08:14.082Z,47.58
2018-12-24T05:09:17.781Z,47.61
2018-12-24T05:10:21.456Z,47.65
2018-12-24T05:11:25.120Z,47.75
2018-12-24T05:12:28.714Z,47.91
2018-12-24T05:13:40.650Z,47.95
2018-12-24T05:14:37.701Z,48.05
2018-12-24T05:15:41.293Z,48.23
2018-12-24T05:16:44.893Z,48.28
2018-12-24T05:17:48.483Z,48.40
2018-12-24T05:18:52.104Z,48.53
2018-12-24T05:19:55.754Z,48.60
2018-12-24T05:20:59.336Z,48.54
2018-12-24T05:22:03.021Z,48.54
2018-12-24T05:23:06.615Z,48.55
2018-12-24T05:24:10.273Z,48.58
2018-12-24T05:25:13.904Z,48.53
2018-12-24T05:26:17.509Z,48.42
2018-12-24T05:27:21.208Z,48.32
2018-12-24T05:28:24.819Z,48.32
2018-12-24T05:29:28.397Z,48.18
2018-12-24T05:30:33.541Z,48.11
2018-12-24T05:31:37.123Z,48.08
2018-12-24T05:32:40.782Z,48.06
2018-12-24T05:33:44.399Z,48.03
2018-12-24T05:34:48.050Z,47.93
2018-12-24T05:35:51.707Z,47.82
2018-12-24T05:36:55.378Z,47.80
2018-12-24T05:37:58.963Z,47.83
2018-12-24T05:39:02.606Z,47.77
2018-12-24T05:40:06.329Z,47.82
2018-12-24T05:41:09.926Z,47.89
2018-12-24T05:42:13.552Z,47.84
2018-12-24T05:43:17.135Z,47.93
2018-12-24T05:44:20.749Z,47.97
2018-12-24T05:45:24.375Z,48.01
2018-12-24T05:46:28.023Z,48.05
2018-12-24T05:47:31.715Z,48.15
2018-12-24T05:48:35.379Z,48.22
2018-12-24T05:49:39.110Z,48.28
2018-12-24T05:50:42.814Z,48.28
2018-12-24T05:51:46.432Z,48.32
2018-12-24T05:52:50.158Z,48.36
2018-12-24T05:53:53.939Z,48.28
2018-12-24T05:54:57.523Z,48.15
2018-12-24T05:56:01.183Z,48.16
2018-12-24T05:57:04.819Z,48.09
2018-12-24T05:58:08.528Z,48.14
2018-12-24T05:59:12.149Z,48.09
2018-12-24T06:00:15.800Z,48.03
2018-12-24T06:01:19.438Z,47.95
2018-12-24T06:02:23.085Z,47.95
2018-12-24T06:03:26.748Z,48.04
2018-12-24T06:04:30.370Z,48.08
2018-12-24T06:05:33.991Z,48.15
2018-12-24T06:06:37.625Z,48.20
2018-12-24T06:07:41.325Z,48.21
2018-12-24T06:08:44.911Z,48.33
2018-12-24T06:09:48.534Z,48.39
2018-12-24T06:10:52.146Z,48.42
2018-12-24T06:11:56.231Z,48.49
2018-12-24T06:12:59.953Z,48.49
2018-12-24T06:14:03.563Z,48.48
2018-12-24T06:15:07.226Z,48.54
2018-12-24T06:16:10.941Z,48.50
2018-12-24T06:17:14.662Z,48.52
2018-12-24T06:18:18.380Z,48.50
2018-12-24T06:19:22.024Z,48.45
2018-12-24T06:20:25.612Z,48.35
2018-12-24T06:21:29.291Z,48.29
2018-12-24T06:22:32.878Z,48.25
2018-12-24T06:23:36.498Z,48.23
2018-12-24T06:24:40.106Z,48.21
2018-12-24T06:25:43.715Z,48.22
2018-12-24T06:26:47.345Z,48.26
2018-12-24T06:27:50.929Z,48.29
2018-12-24T06:28:54.647Z,48.33
2018-12-24T06:29:58.261Z,48.40
2018-12-24T06:31:01.932Z,48.48
2018-12-24T06:32:05.565Z,48.56
2018-12-24T06:33:09.158Z,48.62
2018-12-24T06:34:12.789Z,48.65
2018-12-24T06:35:16.415Z,48.70
2018-12-24T06:36:20.087Z,48.73
2018-12-24T06:37:23.696Z,48.76
2018-12-24T06:38:27.321Z,48.76
2018-12-24T06:39:31.031Z,48.71
2018-12-24T06:40:34.641Z,48.71
2018-12-24T06:41:38.375Z,48.59
2018-12-24T06:42:41.991Z,48.56
2018-12-24T06:43:45.653Z,48.53
2018-12-24T06:44:49.333Z,48.54
2018-12-24T06:45:52.992Z,48.59
2018-12-24T06:46:56.585Z,48.62
2018-12-24T06:48:00.317Z,48.64
2018-12-24T06:49:03.933Z,48.70
2018-12-24T06:50:07.704Z,48.79
2018-12-24T06:51:11.384Z,48.82
2018-12-24T06:52:14.977Z,48.90
2018-12-24T06:53:18.563Z,48.91
2018-12-24T06:54:22.251Z,48.99
2018-12-24T06:55:25.876Z,48.98
2018-12-24T06:56:29.500Z,49.02
2018-12-24T06:57:33.096Z,49.01
2018-12-24T06:58:36.682Z,49.00
2018-12-24T06:59:40.312Z,49.00
2018-12-24T07:00:43.921Z,48.94
2018-12-24T07:01:47.522Z,48.86
2018-12-24T07:02:51.254Z,48.88
2018-12-24T07:03:54.903Z,48.82
2018-12-24T07:04:58.588Z,48.90
2018-12-24T07:06:02.307Z,48.89
2018-12-24T07:07:05.899Z,48.93
2018-12-24T07:08:10.534Z,48.96
2018-12-24T07:09:14.122Z,49.02
2018-12-24T07:10:17.711Z,49.02
2018-12-24T07:11:21.346Z,49.07
2018-12-24T07:12:24.933Z,49.13
2018-12-24T07:13:28.634Z,49.18
2018-12-24T07:14:32.246Z,49.22
2018-12-24T07:15:35.837Z,49.26
2018-12-24T07:16:39.583Z,49.32
2018-12-24T07:17:43.157Z,49.26
2018-12-24T07:18:46.827Z,49.20
2018-12-24T07:19:50.478Z,49.18
2018-12-24T07:20:54.200Z,49.15
2018-12-24T07:21:57.914Z,49.15
2018-12-24T07:23:01.595Z,49.08
2018-12-24T07:24:05.185Z,49.08
2018-12-24T07:25:08.952Z,49.06
2018-12-24T07:26:12.550Z,49.07
2018-12-24T07:27:16.169Z,49.08
2018-12-24T07:28:19.918Z,49.13
2018-12-24T07:29:23.493Z,49.15
2018-12-24T07:30:27.197Z,49.21
2018-12-24T07:31:30.797Z,49.24
2018-12-24T07:32:34.414Z,49.27
2018-12-24T07:33:38.031Z,49.31
2018-12-24T07:34:41.641Z,49.37
2018-12-24T07:35:45.230Z,49.43
2018-12-24T07:36:48.822Z,49.48
2018-12-24T07:37:52.649Z,49.45
2018-12-24T07:38:56.253Z,49.41
2018-12-24T07:39:59.862Z,49.43
2018-12-24T07:41:03.540Z,49.37
2018-12-24T07:42:07.509Z,49.35
2018-12-24T07:43:11.157Z,49.29
2018-12-24T07:44:14.752Z,49.30
2018-12-24T07:45:18.467Z,49.32
2018-12-24T07:46:22.067Z,49.39
2018-12-24T07:47:25.693Z,49.37
2018-12-24T07:48:29.390Z,49.40
2018-12-24T07:49:32.997Z,49.42
2018-12-24T07:50:36.604Z,49.48
2018-12-24T07:51:40.195Z,49.53
2018-12-24T07:52:43.806Z,49.59
2018-12-24T07:53:47.422Z,49.62
2018-12-24T07:56:44.016Z,49.65
2018-12-24T07:57:47.681Z,49.60
2018-12-24T07:58:51.288Z,49.63
2018-12-24T07:59:54.992Z,49.60
2018-12-24T08:00:58.587Z,49.52
2018-12-24T08:02:02.325Z,49.53
2018-12-24T08:03:05.992Z,49.53
2018-12-24T08:04:09.590Z,49.57
2018-12-24T08:05:13.232Z,49.56
2018-12-24T08:06:16.912Z,49.57
2018-12-24T08:07:20.529Z,49.62
2018-12-24T08:08:24.165Z,49.63
2018-12-24T08:09:27.785Z,49.62
2018-12-24T08:10:33.047Z,49.70
2018-12-24T08:11:36.720Z,49.75
2018-12-24T08:12:40.363Z,49.80
2018-12-24T08:13:43.957Z,49.87
2018-12-24T08:14:47.568Z,49.87
2018-12-24T08:15:51.211Z,49.89
2018-12-24T08:16:54.928Z,49.83
2018-12-24T08:17:58.517Z,49.84
2018-12-24T08:19:02.114Z,49.83
2018-12-24T08:20:06.382Z,49.78
2018-12-24T08:21:10.087Z,49.75
2018-12-24T08:22:13.708Z,49.73
2018-12-24T08:23:17.434Z,49.72
2018-12-24T08:24:21.045Z,49.72
2018-12-24T08:25:24.770Z,49.74
2018-12-24T08:26:28.394Z,49.78
2018-12-24T08:27:32.041Z,49.84
2018-12-24T08:28:35.714Z,49.84
2018-12-24T08:29:39.356Z,49.87
2018-12-24T08:30:43.146Z,49.91
2018-12-24T08:31:46.753Z,50.01
2018-12-24T08:32:50.489Z,50.04
2018-12-24T08:33:54.104Z,50.08
2018-12-24T08:34:57.689Z,50.08
2018-12-24T08:36:01.365Z,50.05
2018-12-24T08:37:05.068Z,50.04
2018-12-24T08:38:08.679Z,49.97
2018-12-24T08:39:12.268Z,49.92
2018-12-24T08:40:15.863Z,49.88
2018-12-24T08:41:19.472Z,49.87
2018-12-24T08:42:23.248Z,49.82
2018-12-24T08:43:26.877Z,49.82
2018-12-24T08:44:30.488Z,49.88
2018-12-24T08:45:34.090Z,49.94
2018-12-24T08:46:37.691Z,49.97
2018-12-24T08:47:41.324Z,50.04
2018-12-24T08:48:44.941Z,50.07
2018-12-24T08:49:48.524Z,50.10
2018-12-24T08:50:52.138Z,50.16
2018-12-24T08:51:55.763Z,50.17
2018-12-24T08:52:59.414Z,50.21
2018-12-24T08:54:03.019Z,50.23
2018-12-24T08:55:06.767Z,50.22
2018-12-24T08:56:10.358Z,50.20
2018-12-24T08:57:14.033Z,50.11
2018-12-24T08:58:17.649Z,50.02
2018-12-24T08:59:21.261Z,49.96
2018-12-24T09:00:24.857Z,49.92
2018-12-24T09:01:28.454Z,49.94
2018-12-24T09:02:32.047Z,49.95
2018-12-24T09:03:35.670Z,49.97
2018-12-24T09:04:39.343Z,50.02
2018-12-24T09:05:42.960Z,50.01
2018-12-24T09:06:46.569Z,50.09
2018-12-24T09:07:50.195Z,50.12
2018-12-24T09:08:53.818Z,50.19
2018-12-24T09:09:57.426Z,50.21
2018-12-24T09:11:01.039Z,50.24
2018-12-24T09:12:04.715Z,50.30
2018-12-24T09:13:08.308Z,50.31
2018-12-24T09:14:11.947Z,50.29
2018-12-24T09:15:15.562Z,50.27
2018-12-24T09:16:19.161Z,50.19
2018-12-24T09:17:22.844Z,50.15
2018-12-24T09:18:26.440Z,50.11
2018-12-24T09:19:30.209Z,50.10
2018-12-24T09:20:33.805Z,50.15
2018-12-24T09:21:37.407Z,50.18
2018-12-24T09:22:41.083Z,50.20
2018-12-24T09:23:44.681Z,50.17
2018-12-24T09:24:48.408Z,50.23
2018-12-24T09:25:51.974Z,50.25
2018-12-24T09:26:55.653Z,50.27
2018-12-24T09:27:59.344Z,50.28
2018-12-24T09:29:02.938Z,50.32
2018-12-24T09:30:09.667Z,50.36
2018-12-24T09:31:13.438Z,50.43
2018-12-24T09:32:17.024Z,50.50
2018-12-24T09:33:20.693Z,50.55
2018-12-24T09:34:24.348Z,50.59
2018-12-24T09:35:28.037Z,50.63
2018-12-24T09:36:31.709Z,50.67
2018-12-24T09:37:35.401Z,50.73
2018-12-24T09:38:39.029Z,50.79
2018-12-24T09:39:42.710Z,50.81
2018-12-24T09:40:46.463Z,50.86
2018-12-24T09:41:50.202Z,50.89
2018-12-24T09:42:53.854Z,50.91
2018-12-24T09:43:57.493Z,50.91
2018-12-24T09:45:01.084Z,50.89
2018-12-24T09:46:04.723Z,50.84
2018-12-24T09:47:08.356Z,50.82
2018-12-24T09:48:11.951Z,50.79
2018-12-24T09:49:15.560Z,50.79
2018-12-24T09:50:19.227Z,50.77
2018-12-24T09:51:22.832Z,50.78
2018-12-24T09:52:26.512Z,50.81
2018-12-24T09:53:30.212Z,50.81
2018-12-24T09:54:33.796Z,50.79
2018-12-24T09:55:37.490Z,50.86
2018-12-24T09:56:41.189Z,50.88
2018-12-24T09:57:44.843Z,50.91
2018-12-24T09:58:48.542Z,50.92
2018-12-24T09:59:52.128Z,50.94
2018-12-24T10:00:55.729Z,50.91
2018-12-24T10:01:59.385Z,50.87
2018-12-24T10:03:04.622Z,50.85
2018-12-24T10:04:11.191Z,50.74
2018-12-24T10:05:15.881Z,50.64
2018-12-24T10:06:19.587Z,50.54
2018-12-24T10:07:25.106Z,50.52
2018-12-24T10:08:28.689Z,50.47
2018-12-24T10:09:32.356Z,50.36
2018-12-24T10:10:35.960Z,50.28
2018-12-24T10:11:39.537Z,50.26
2018-12-24T10:12:43.191Z,50.28
2018-12-24T10:13:46.880Z,50.26
2018-12-24T10:14:50.535Z,50.34
2018-12-24T10:15:54.235Z,50.33
2018-12-24T10:16:57.795Z,50.34
2018-12-24T10:18:01.455Z,50.36
2018-12-24T10:19:05.125Z,50.39
2018-12-24T10:20:08.850Z,50.40
2018-12-24T10:21:12.468Z,50.46
2018-12-24T10:22:16.096Z,50.46
2018-12-24T10:23:19.706Z,50.45
2018-12-24T10:24:23.402Z,50.38
2018-12-24T10:25:27.002Z,50.35
2018-12-24T10:26:30.642Z,50.32
2018-12-24T10:27:34.260Z,50.24
2018-12-24T10:28:37.868Z,50.23
2018-12-24T10:29:41.850Z,50.24
2018-12-24T10:30:45.466Z,50.27
2018-12-24T10:31:49.056Z,50.25
2018-12-24T10:32:52.665Z,50.28
2018-12-24T10:33:56.281Z,50.26
2018-12-24T10:34:59.857Z,50.30
2018-12-24T10:36:03.475Z,50.33
2018-12-24T10:37:07.068Z,50.34
2018-12-24T10:38:10.679Z,50.33
2018-12-24T10:39:14.323Z,50.36
2018-12-24T10:40:17.933Z,50.42
2018-12-24T10:41:21.525Z,50.43
2018-12-24T10:42:25.131Z,50.38
2018-12-24T10:43:28.876Z,50.37
2018-12-24T10:44:32.546Z,50.29
2018-12-24T10:45:36.214Z,50.24
2018-12-24T10:46:39.897Z,50.19
2018-12-24T10:47:43.647Z,50.18
2018-12-24T10:48:47.259Z,50.18
2018-12-24T10:49:50.882Z,50.18
2018-12-24T10:50:54.489Z,50.18
2018-12-24T10:51:58.082Z,50.17
2018-12-24T10:53:01.771Z,50.11
2018-12-24T10:54:05.353Z,50.11
2018-12-24T10:55:09.068Z,50.16
2018-12-24T10:56:12.681Z,50.17
2018-12-24T10:57:16.296Z,50.19
2018-12-24T10:58:19.872Z,50.26
2018-12-24T10:59:23.491Z,50.29
2018-12-24T11:00:27.146Z,50.36
2018-12-24T11:01:30.938Z,50.33
2018-12-24T11:02:34.546Z,50.33
2018-12-24T11:03:38.148Z,50.32
2018-12-24T11:04:41.729Z,50.26
2018-12-24T11:05:45.420Z,50.22
2018-12-24T11:06:49.005Z,50.22
2018-12-24T11:07:52.755Z,50.21
2018-12-24T11:08:56.372Z,50.20
2018-12-24T11:09:59.970Z,50.19
2018-12-24T11:11:03.606Z,50.22
2018-12-24T11:12:07.527Z,50.23
2018-12-24T11:13:11.112Z,50.23
2018-12-24T11:14:14.748Z,50.27
2018-12-24T11:15:25.053Z,50.28
2018-12-24T11:16:23.798Z,50.29
2018-12-24T11:17:27.418Z,50.36
2018-12-24T11:18:31.029Z,50.35
2018-12-24T11:19:34.729Z,50.38
2018-12-24T11:20:38.313Z,50.41
2018-12-24T11:21:41.994Z,50.41
2018-12-24T11:22:45.615Z,50.42
2018-12-24T11:23:49.226Z,50.33
2018-12-24T11:24:52.892Z,50.30
2018-12-24T11:25:56.515Z,50.25
2018-12-24T11:27:00.131Z,50.25
2018-12-24T11:28:03.828Z,50.23
2018-12-24T11:29:07.421Z,50.23
2018-12-24T11:30:11.111Z,50.22
2018-12-24T11:31:14.785Z,50.26
2018-12-24T11:32:18.473Z,50.28
2018-12-24T11:33:22.189Z,50.28
2018-12-24T11:34:25.873Z,50.30
2018-12-24T11:35:29.472Z,50.35
2018-12-24T11:36:33.339Z,50.39
2018-12-24T11:37:37.059Z,50.42
2018-12-24T11:38:40.653Z,50.47
2018-12-24T11:39:44.355Z,50.48
2018-12-24T11:40:47.939Z,50.44
2018-12-24T11:41:51.554Z,50.42
2018-12-24T11:42:55.194Z,50.36
2018-12-24T11:43:58.807Z,50.34
2018-12-24T11:45:02.509Z,50.33
2018-12-24T11:46:06.132Z,50.33
2018-12-24T11:47:09.712Z,50.31
2018-12-24T11:48:13.384Z,50.32
2018-12-24T11:49:16.991Z,50.35
2018-12-24T11:50:20.683Z,50.37
2018-12-24T11:51:24.289Z,50.33
2018-12-24T11:52:27.963Z,50.38
2018-12-24T11:53:31.602Z,50.41
2018-12-24T11:54:35.329Z,50.40
2018-12-24T11:55:38.977Z,50.45
2018-12-24T11:56:42.609Z,50.49
2018-12-24T11:57:47.442Z,50.52
2018-12-24T11:58:51.229Z,50.52
2018-12-24T11:59:54.839Z,50.51
2018-12-24T12:00:58.432Z,50.52
2018-12-24T12:02:09.765Z,50.49
2018-12-24T12:03:07.427Z,50.49
2018-12-24T12:04:11.057Z,50.47
2018-12-24T12:05:14.744Z,50.45
2018-12-24T12:06:19.829Z,50.44
2018-12-24T12:07:23.835Z,50.43
2018-12-24T12:08:27.432Z,50.43
2018-12-24T12:09:31.047Z,50.41
2018-12-24T12:10:34.769Z,50.41
2018-12-24T12:11:38.515Z,50.46
2018-12-24T12:12:42.106Z,50.47
2018-12-24T12:13:45.732Z,50.49
2018-12-24T12:14:49.331Z,50.51
2018-12-24T12:15:53.015Z,50.54
2018-12-24T12:16:56.650Z,50.55
2018-12-24T12:18:00.252Z,50.61
2018-12-24T12:19:03.946Z,50.61
2018-12-24T12:20:08.216Z,50.61
2018-12-24T12:21:11.909Z,50.60
2018-12-24T12:22:15.587Z,50.57
2018-12-24T12:23:19.262Z,50.54
2018-12-24T12:24:22.916Z,50.54
2018-12-24T12:25:26.581Z,50.52
2018-12-24T12:26:30.434Z,50.50
2018-12-24T12:27:34.136Z,50.53
2018-12-24T12:28:37.764Z,50.51
2018-12-24T12:29:41.390Z,50.51
2018-12-24T12:30:45.003Z,50.52
2018-12-24T12:31:48.605Z,50.53
2018-12-24T12:32:52.276Z,50.56
2018-12-24T12:33:55.884Z,50.57
2018-12-24T12:34:59.511Z,50.60
2018-12-24T12:36:03.183Z,50.64
2018-12-24T12:37:06.789Z,50.67
2018-12-24T12:38:10.464Z,50.67
2018-12-24T12:39:14.068Z,50.67
2018-12-24T12:40:17.702Z,50.67
2018-12-24T12:41:21.318Z,50.67
2018-12-24T12:42:25.127Z,50.64
2018-12-24T12:43:28.697Z,50.58
2018-12-24T12:44:32.379Z,50.57
2018-12-24T12:45:36.037Z,50.56
2018-12-24T12:46:39.763Z,50.52
2018-12-24T12:47:43.515Z,50.55
2018-12-24T12:48:47.190Z,50.56
2018-12-24T12:49:50.866Z,50.58
2018-12-24T12:50:54.484Z,50.58
2018-12-24T12:51:58.082Z,50.61
2018-12-24T12:53:01.701Z,50.64
2018-12-24T12:54:05.285Z,50.67
2018-12-24T12:55:08.887Z,50.70
2018-12-24T12:56:12.502Z,50.73
2018-12-24T12:57:16.114Z,50.77
2018-12-24T12:58:19.788Z,50.79
2018-12-24T12:59:23.386Z,50.79
2018-12-24T13:00:26.996Z,50.81
2018-12-24T13:01:30.609Z,50.82
2018-12-24T13:02:34.272Z,50.76
2018-12-24T13:03:37.868Z,50.75
2018-12-24T13:04:41.632Z,50.75
2018-12-24T13:05:45.297Z,50.70
2018-12-24T13:06:49.018Z,50.71
2018-12-24T13:07:52.625Z,50.72
2018-12-24T13:08:56.259Z,50.70
2018-12-24T13:09:59.867Z,50.72
2018-12-24T13:11:03.457Z,50.73
2018-12-24T13:12:07.236Z,50.74
2018-12-24T13:13:10.929Z,50.76
2018-12-24T13:14:14.521Z,50.77
2018-12-24T13:15:18.210Z,50.83
2018-12-24T13:16:21.904Z,50.82
2018-12-24T13:17:25.698Z,50.86
2018-12-24T13:18:29.318Z,50.86
2018-12-24T13:19:32.923Z,50.85
2018-12-24T13:20:36.512Z,50.85
2018-12-24T13:21:41.959Z,50.83
2018-12-24T13:22:45.755Z,50.79
2018-12-24T13:23:49.360Z,50.77
2018-12-24T13:24:52.983Z,50.78
2018-12-24T13:25:56.595Z,50.75
2018-12-24T13:27:00.204Z,50.69
2018-12-24T13:28:03.841Z,50.65
2018-12-24T13:29:07.518Z,50.69
2018-12-24T13:30:11.206Z,50.71
2018-12-24T13:31:14.864Z,50.70
2018-12-24T13:32:18.487Z,50.73
2018-12-24T13:33:22.183Z,50.77
2018-12-24T13:34:25.819Z,50.80
2018-12-24T13:35:29.694Z,50.82
2018-12-24T13:36:33.249Z,50.82
2018-12-24T13:37:36.845Z,50.84
2018-12-24T13:38:40.560Z,50.87
2018-12-24T13:39:44.191Z,50.87
2018-12-24T13:40:47.806Z,50.85
2018-12-24T13:41:51.427Z,50.79